sensor_id;sensor_type;location;lat;lon;timestamp;P1;durP1;ratioP1;P2;durP2;ratioP2
69956;SDS011;57283;54.816;9.482;2023-02-26T00:01:39;1.40;;;0.20;;
69956;SDS011;57283;54.816;9.482;2023-02-26T00:04:07;2.22;;;0.90;;
69956;SDS011;57283;54.816;9.482;2023-02-26T00:06:37;1.48;;;0.38;;
69956;SDS011;57283;54.816;9.482;2023-02-26T00:09:24;1.58;;;0.60;;
69956;SDS011;57283;54.816;9.482;2023-02-26T00:11:52;1.80;;;0.40;;
69956;SDS011;57283;54.816;9.482;2023-02-26T00:14:20;1.80;;;0.67;;
69956;SDS011;57283;54.816;9.482;2023-02-26T00:16:49;2.67;;;0.60;;
69956;SDS011;57283;54.816;9.482;2023-02-26T00:19:24;2.55;;;0.68;;
69956;SDS011;57283;54.816;9.482;2023-02-26T00:21:55;2.45;;;0.50;;
69956;SDS011;57283;54.816;9.482;2023-02-26T00:24:25;2.13;;;0.50;;
69956;SDS011;57283;54.816;9.482;2023-02-26T00:26:53;1.60;;;0.50;;
69956;SDS011;57283;54.816;9.482;2023-02-26T00:29:21;3.47;;;0.63;;
69956;SDS011;57283;54.816;9.482;2023-02-26T00:31:49;2.33;;;0.45;;
69956;SDS011;57283;54.816;9.482;2023-02-26T00:34:18;2.50;;;0.45;;
69956;SDS011;57283;54.816;9.482;2023-02-26T00:36:48;1.30;;;0.30;;
69956;SDS011;57283;54.816;9.482;2023-02-26T00:39:31;1.20;;;0.30;;
69956;SDS011;57283;54.816;9.482;2023-02-26T00:42:07;1.38;;;0.40;;
69956;SDS011;57283;54.816;9.482;2023-02-26T00:44:35;1.35;;;0.35;;
69956;SDS011;57283;54.816;9.482;2023-02-26T00:47:06;1.33;;;0.30;;
69956;SDS011;57283;54.816;9.482;2023-02-26T00:49:43;3.88;;;0.57;;
69956;SDS011;57283;54.816;9.482;2023-02-26T00:52:25;3.00;;;0.60;;
69956;SDS011;57283;54.816;9.482;2023-02-26T00:54:59;2.08;;;0.43;;
69956;SDS011;57283;54.816;9.482;2023-02-26T00:57:27;5.38;;;0.95;;
69956;SDS011;57283;54.816;9.482;2023-02-26T00:59:55;2.15;;;0.50;;
69956;SDS011;57283;54.816;9.482;2023-02-26T01:02:23;2.50;;;1.02;;
69956;SDS011;57283;54.816;9.482;2023-02-26T01:04:51;2.00;;;0.40;;
69956;SDS011;57283;54.816;9.482;2023-02-26T01:07:21;2.35;;;0.70;;
69956;SDS011;57283;54.816;9.482;2023-02-26T01:09:50;3.65;;;0.63;;
69956;SDS011;57283;54.816;9.482;2023-02-26T01:12:20;2.58;;;0.40;;
69956;SDS011;57283;54.816;9.482;2023-02-26T01:14:48;3.58;;;0.80;;
69956;SDS011;57283;54.816;9.482;2023-02-26T01:17:18;1.43;;;0.33;;
69956;SDS011;57283;54.816;9.482;2023-02-26T01:19:51;3.63;;;0.93;;
69956;SDS011;57283;54.816;9.482;2023-02-26T01:22:21;2.85;;;0.75;;
69956;SDS011;57283;54.816;9.482;2023-02-26T01:24:55;3.58;;;0.60;;
69956;SDS011;57283;54.816;9.482;2023-02-26T01:27:31;1.90;;;0.45;;
69956;SDS011;57283;54.816;9.482;2023-02-26T01:29:59;1.80;;;0.50;;
69956;SDS011;57283;54.816;9.482;2023-02-26T01:32:29;1.92;;;0.50;;
69956;SDS011;57283;54.816;9.482;2023-02-26T01:35:11;3.50;;;0.80;;
69956;SDS011;57283;54.816;9.482;2023-02-26T01:37:49;1.75;;;0.40;;
69956;SDS011;57283;54.816;9.482;2023-02-26T01:40:31;2.38;;;0.50;;
69956;SDS011;57283;54.816;9.482;2023-02-26T01:43:06;2.70;;;0.50;;
69956;SDS011;57283;54.816;9.482;2023-02-26T01:45:43;3.15;;;0.50;;
69956;SDS011;57283;54.816;9.482;2023-02-26T01:48:24;1.88;;;0.47;;
69956;SDS011;57283;54.816;9.482;2023-02-26T01:51:02;1.98;;;0.57;;
69956;SDS011;57283;54.816;9.482;2023-02-26T01:53:31;2.88;;;0.60;;
69956;SDS011;57283;54.816;9.482;2023-02-26T01:55:59;2.53;;;0.60;;
69956;SDS011;57283;54.816;9.482;2023-02-26T01:58:33;2.33;;;0.50;;
69956;SDS011;57283;54.816;9.482;2023-02-26T02:01:03;1.95;;;0.47;;
69956;SDS011;57283;54.816;9.482;2023-02-26T02:03:32;2.70;;;0.63;;
69956;SDS011;57283;54.816;9.482;2023-02-26T02:06:04;2.53;;;0.68;;
69956;SDS011;57283;54.816;9.482;2023-02-26T02:08:34;2.10;;;0.50;;
69956;SDS011;57283;54.816;9.482;2023-02-26T02:11:03;2.60;;;0.60;;
69956;SDS011;57283;54.816;9.482;2023-02-26T02:13:39;3.25;;;0.77;;
69956;SDS011;57283;54.816;9.482;2023-02-26T02:16:17;2.75;;;0.70;;
69956;SDS011;57283;54.816;9.482;2023-02-26T02:18:52;6.00;;;0.90;;
69956;SDS011;57283;54.816;9.482;2023-02-26T02:24:37;2.20;;;0.60;;
69956;SDS011;57283;54.816;9.482;2023-02-26T02:27:21;2.95;;;0.50;;
69956;SDS011;57283;54.816;9.482;2023-02-26T02:32:50;2.60;;;0.60;;
69956;SDS011;57283;54.816;9.482;2023-02-26T02:35:23;2.30;;;0.53;;
69956;SDS011;57283;54.816;9.482;2023-02-26T02:37:57;9.80;;;1.05;;
69956;SDS011;57283;54.816;9.482;2023-02-26T02:40:32;2.28;;;0.50;;
69956;SDS011;57283;54.816;9.482;2023-02-26T02:43:03;2.85;;;0.82;;
69956;SDS011;57283;54.816;9.482;2023-02-26T02:45:35;1.77;;;0.47;;
69956;SDS011;57283;54.816;9.482;2023-02-26T02:48:09;3.60;;;0.50;;
69956;SDS011;57283;54.816;9.482;2023-02-26T02:50:41;1.70;;;0.50;;
69956;SDS011;57283;54.816;9.482;2023-02-26T02:53:13;2.13;;;0.60;;
69956;SDS011;57283;54.816;9.482;2023-02-26T02:55:46;1.73;;;0.50;;
69956;SDS011;57283;54.816;9.482;2023-02-26T02:58:20;1.85;;;0.50;;
69956;SDS011;57283;54.816;9.482;2023-02-26T03:00:53;2.43;;;0.63;;
69956;SDS011;57283;54.816;9.482;2023-02-26T03:03:25;1.77;;;0.50;;
69956;SDS011;57283;54.816;9.482;2023-02-26T03:05:56;3.08;;;0.52;;
69956;SDS011;57283;54.816;9.482;2023-02-26T03:08:25;1.77;;;0.38;;
69956;SDS011;57283;54.816;9.482;2023-02-26T03:10:55;3.35;;;0.70;;
69956;SDS011;57283;54.816;9.482;2023-02-26T03:13:24;2.90;;;0.60;;
69956;SDS011;57283;54.816;9.482;2023-02-26T03:15:55;2.28;;;0.60;;
69956;SDS011;57283;54.816;9.482;2023-02-26T03:18:38;1.95;;;0.57;;
69956;SDS011;57283;54.816;9.482;2023-02-26T03:21:18;2.08;;;0.60;;
69956;SDS011;57283;54.816;9.482;2023-02-26T03:23:56;2.90;;;0.70;;
69956;SDS011;57283;54.816;9.482;2023-02-26T03:26:35;2.23;;;0.70;;
69956;SDS011;57283;54.816;9.482;2023-02-26T03:29:09;3.35;;;1.02;;
69956;SDS011;57283;54.816;9.482;2023-02-26T03:31:44;2.53;;;0.65;;
69956;SDS011;57283;54.816;9.482;2023-02-26T03:34:21;2.83;;;0.63;;
69956;SDS011;57283;54.816;9.482;2023-02-26T03:36:55;4.65;;;0.73;;
69956;SDS011;57283;54.816;9.482;2023-02-26T03:39:26;3.50;;;0.70;;
69956;SDS011;57283;54.816;9.482;2023-02-26T03:42:00;2.83;;;0.47;;
69956;SDS011;57283;54.816;9.482;2023-02-26T03:44:32;3.13;;;0.82;;
69956;SDS011;57283;54.816;9.482;2023-02-26T03:47:05;2.97;;;0.70;;
69956;SDS011;57283;54.816;9.482;2023-02-26T03:49:38;2.67;;;0.68;;
69956;SDS011;57283;54.816;9.482;2023-02-26T03:52:10;2.60;;;0.90;;
69956;SDS011;57283;54.816;9.482;2023-02-26T03:54:40;2.72;;;0.65;;
69956;SDS011;57283;54.816;9.482;2023-02-26T03:57:12;2.78;;;0.75;;
69956;SDS011;57283;54.816;9.482;2023-02-26T03:59:40;4.68;;;0.73;;
69956;SDS011;57283;54.816;9.482;2023-02-26T04:02:09;3.28;;;1.05;;
69956;SDS011;57283;54.816;9.482;2023-02-26T04:04:43;2.57;;;0.73;;
69956;SDS011;57283;54.816;9.482;2023-02-26T04:07:14;2.25;;;0.68;;
69956;SDS011;57283;54.816;9.482;2023-02-26T04:09:45;2.25;;;0.57;;
69956;SDS011;57283;54.816;9.482;2023-02-26T04:12:15;1.85;;;0.50;;
69956;SDS011;57283;54.816;9.482;2023-02-26T04:14:47;2.88;;;0.60;;
69956;SDS011;57283;54.816;9.482;2023-02-26T04:17:15;2.40;;;0.63;;
69956;SDS011;57283;54.816;9.482;2023-02-26T04:19:45;2.13;;;0.50;;
69956;SDS011;57283;54.816;9.482;2023-02-26T04:22:13;2.28;;;0.65;;
69956;SDS011;57283;54.816;9.482;2023-02-26T04:24:41;2.38;;;0.80;;
69956;SDS011;57283;54.816;9.482;2023-02-26T04:27:09;2.38;;;0.60;;
69956;SDS011;57283;54.816;9.482;2023-02-26T04:29:36;2.83;;;0.97;;
69956;SDS011;57283;54.816;9.482;2023-02-26T04:32:05;1.90;;;0.47;;
69956;SDS011;57283;54.816;9.482;2023-02-26T04:34:33;3.42;;;0.50;;
69956;SDS011;57283;54.816;9.482;2023-02-26T04:37:02;5.97;;;0.65;;
69956;SDS011;57283;54.816;9.482;2023-02-26T04:39:30;2.05;;;0.52;;
69956;SDS011;57283;54.816;9.482;2023-02-26T04:41:58;3.80;;;1.03;;
69956;SDS011;57283;54.816;9.482;2023-02-26T04:44:26;2.95;;;0.63;;
69956;SDS011;57283;54.816;9.482;2023-02-26T04:46:54;2.80;;;0.80;;
69956;SDS011;57283;54.816;9.482;2023-02-26T04:49:22;2.85;;;0.57;;
69956;SDS011;57283;54.816;9.482;2023-02-26T04:51:50;2.70;;;0.80;;
69956;SDS011;57283;54.816;9.482;2023-02-26T04:54:19;3.47;;;0.50;;
69956;SDS011;57283;54.816;9.482;2023-02-26T04:56:47;5.28;;;1.00;;
69956;SDS011;57283;54.816;9.482;2023-02-26T04:59:15;3.80;;;0.75;;
69956;SDS011;57283;54.816;9.482;2023-02-26T05:01:43;6.78;;;0.77;;
69956;SDS011;57283;54.816;9.482;2023-02-26T05:04:11;2.20;;;0.70;;
69956;SDS011;57283;54.816;9.482;2023-02-26T05:06:38;3.33;;;0.63;;
69956;SDS011;57283;54.816;9.482;2023-02-26T05:09:07;2.10;;;0.65;;
69956;SDS011;57283;54.816;9.482;2023-02-26T05:11:36;2.55;;;0.60;;
69956;SDS011;57283;54.816;9.482;2023-02-26T05:14:04;4.90;;;0.80;;
69956;SDS011;57283;54.816;9.482;2023-02-26T05:16:31;3.47;;;0.80;;
69956;SDS011;57283;54.816;9.482;2023-02-26T05:18:59;2.87;;;0.90;;
69956;SDS011;57283;54.816;9.482;2023-02-26T05:21:27;2.78;;;0.80;;
69956;SDS011;57283;54.816;9.482;2023-02-26T05:23:55;2.35;;;0.60;;
69956;SDS011;57283;54.816;9.482;2023-02-26T05:26:23;2.45;;;0.47;;
69956;SDS011;57283;54.816;9.482;2023-02-26T05:28:52;2.83;;;0.50;;
69956;SDS011;57283;54.816;9.482;2023-02-26T05:31:20;4.50;;;0.87;;
69956;SDS011;57283;54.816;9.482;2023-02-26T05:33:48;2.30;;;0.70;;
69956;SDS011;57283;54.816;9.482;2023-02-26T05:36:16;1.90;;;0.52;;
69956;SDS011;57283;54.816;9.482;2023-02-26T05:38:44;8.15;;;0.88;;
69956;SDS011;57283;54.816;9.482;2023-02-26T05:41:12;2.53;;;0.70;;
69956;SDS011;57283;54.816;9.482;2023-02-26T05:43:39;2.50;;;0.60;;
69956;SDS011;57283;54.816;9.482;2023-02-26T05:46:09;1.95;;;0.35;;
69956;SDS011;57283;54.816;9.482;2023-02-26T05:48:36;2.05;;;0.50;;
69956;SDS011;57283;54.816;9.482;2023-02-26T05:51:04;4.50;;;1.08;;
69956;SDS011;57283;54.816;9.482;2023-02-26T05:53:32;9.57;;;1.00;;
69956;SDS011;57283;54.816;9.482;2023-02-26T05:56:00;6.03;;;1.00;;
69956;SDS011;57283;54.816;9.482;2023-02-26T05:58:28;2.08;;;0.57;;
69956;SDS011;57283;54.816;9.482;2023-02-26T06:00:57;2.67;;;0.60;;
69956;SDS011;57283;54.816;9.482;2023-02-26T06:03:26;2.15;;;0.40;;
69956;SDS011;57283;54.816;9.482;2023-02-26T06:05:54;3.10;;;0.73;;
69956;SDS011;57283;54.816;9.482;2023-02-26T06:08:22;1.90;;;0.50;;
69956;SDS011;57283;54.816;9.482;2023-02-26T06:10:50;1.67;;;0.40;;
69956;SDS011;57283;54.816;9.482;2023-02-26T06:13:18;2.00;;;0.68;;
69956;SDS011;57283;54.816;9.482;2023-02-26T06:15:46;4.97;;;0.88;;
69956;SDS011;57283;54.816;9.482;2023-02-26T06:18:17;6.57;;;1.70;;
69956;SDS011;57283;54.816;9.482;2023-02-26T06:20:46;3.50;;;0.60;;
69956;SDS011;57283;54.816;9.482;2023-02-26T06:23:14;2.25;;;0.52;;
69956;SDS011;57283;54.816;9.482;2023-02-26T06:25:42;2.55;;;0.55;;
69956;SDS011;57283;54.816;9.482;2023-02-26T06:28:10;2.90;;;0.70;;
69956;SDS011;57283;54.816;9.482;2023-02-26T06:30:38;2.70;;;0.70;;
69956;SDS011;57283;54.816;9.482;2023-02-26T06:33:06;2.93;;;0.70;;
69956;SDS011;57283;54.816;9.482;2023-02-26T06:35:34;4.85;;;1.13;;
69956;SDS011;57283;54.816;9.482;2023-02-26T06:38:09;1.98;;;0.50;;
69956;SDS011;57283;54.816;9.482;2023-02-26T06:40:40;2.97;;;0.70;;
69956;SDS011;57283;54.816;9.482;2023-02-26T06:43:08;2.38;;;0.70;;
69956;SDS011;57283;54.816;9.482;2023-02-26T06:45:38;3.27;;;0.67;;
69956;SDS011;57283;54.816;9.482;2023-02-26T06:48:06;4.93;;;0.90;;
69956;SDS011;57283;54.816;9.482;2023-02-26T06:50:34;1.92;;;0.50;;
69956;SDS011;57283;54.816;9.482;2023-02-26T06:53:02;3.75;;;1.02;;
69956;SDS011;57283;54.816;9.482;2023-02-26T06:55:31;2.83;;;0.70;;
69956;SDS011;57283;54.816;9.482;2023-02-26T06:57:59;3.40;;;1.00;;
69956;SDS011;57283;54.816;9.482;2023-02-26T07:00:27;3.45;;;0.90;;
69956;SDS011;57283;54.816;9.482;2023-02-26T07:02:55;3.05;;;1.00;;
69956;SDS011;57283;54.816;9.482;2023-02-26T07:05:23;3.72;;;0.98;;
69956;SDS011;57283;54.816;9.482;2023-02-26T07:07:51;3.13;;;0.90;;
69956;SDS011;57283;54.816;9.482;2023-02-26T07:10:19;3.17;;;1.10;;
69956;SDS011;57283;54.816;9.482;2023-02-26T07:12:49;2.90;;;1.02;;
69956;SDS011;57283;54.816;9.482;2023-02-26T07:15:17;3.42;;;1.40;;
69956;SDS011;57283;54.816;9.482;2023-02-26T07:17:45;4.30;;;1.20;;
69956;SDS011;57283;54.816;9.482;2023-02-26T07:20:12;4.35;;;1.30;;
69956;SDS011;57283;54.816;9.482;2023-02-26T07:22:40;3.50;;;1.20;;
69956;SDS011;57283;54.816;9.482;2023-02-26T07:25:08;3.72;;;1.30;;
69956;SDS011;57283;54.816;9.482;2023-02-26T07:27:37;5.15;;;1.70;;
69956;SDS011;57283;54.816;9.482;2023-02-26T07:30:10;3.47;;;1.20;;
69956;SDS011;57283;54.816;9.482;2023-02-26T07:32:38;3.33;;;1.45;;
69956;SDS011;57283;54.816;9.482;2023-02-26T07:35:06;4.87;;;1.37;;
69956;SDS011;57283;54.816;9.482;2023-02-26T07:37:37;4.15;;;1.30;;
69956;SDS011;57283;54.816;9.482;2023-02-26T07:40:05;4.13;;;1.20;;
69956;SDS011;57283;54.816;9.482;2023-02-26T07:42:34;5.07;;;1.67;;
69956;SDS011;57283;54.816;9.482;2023-02-26T07:45:02;4.72;;;1.58;;
69956;SDS011;57283;54.816;9.482;2023-02-26T07:47:35;4.00;;;1.13;;
69956;SDS011;57283;54.816;9.482;2023-02-26T07:50:03;3.92;;;1.10;;
69956;SDS011;57283;54.816;9.482;2023-02-26T07:52:32;3.58;;;1.20;;
69956;SDS011;57283;54.816;9.482;2023-02-26T07:55:00;5.78;;;1.50;;
69956;SDS011;57283;54.816;9.482;2023-02-26T07:57:27;5.35;;;1.52;;
69956;SDS011;57283;54.816;9.482;2023-02-26T07:59:55;3.70;;;1.33;;
69956;SDS011;57283;54.816;9.482;2023-02-26T08:02:23;4.70;;;1.63;;
69956;SDS011;57283;54.816;9.482;2023-02-26T08:04:52;4.90;;;1.27;;
69956;SDS011;57283;54.816;9.482;2023-02-26T08:07:20;4.07;;;1.45;;
69956;SDS011;57283;54.816;9.482;2023-02-26T08:09:48;3.40;;;1.35;;
69956;SDS011;57283;54.816;9.482;2023-02-26T08:12:16;4.30;;;1.50;;
69956;SDS011;57283;54.816;9.482;2023-02-26T08:14:44;4.55;;;1.30;;
69956;SDS011;57283;54.816;9.482;2023-02-26T08:17:12;4.15;;;1.60;;
69956;SDS011;57283;54.816;9.482;2023-02-26T08:19:40;4.72;;;1.98;;
69956;SDS011;57283;54.816;9.482;2023-02-26T08:22:09;4.68;;;1.30;;
69956;SDS011;57283;54.816;9.482;2023-02-26T08:24:37;5.20;;;1.47;;
69956;SDS011;57283;54.816;9.482;2023-02-26T08:27:05;3.88;;;1.70;;
69956;SDS011;57283;54.816;9.482;2023-02-26T08:29:38;4.40;;;1.90;;
69956;SDS011;57283;54.816;9.482;2023-02-26T08:32:06;3.28;;;1.55;;
69956;SDS011;57283;54.816;9.482;2023-02-26T08:34:34;3.60;;;1.85;;
69956;SDS011;57283;54.816;9.482;2023-02-26T08:37:02;3.87;;;1.70;;
69956;SDS011;57283;54.816;9.482;2023-02-26T08:39:31;4.60;;;2.05;;
69956;SDS011;57283;54.816;9.482;2023-02-26T08:42:03;5.20;;;1.95;;
69956;SDS011;57283;54.816;9.482;2023-02-26T08:44:32;4.00;;;2.10;;
69956;SDS011;57283;54.816;9.482;2023-02-26T08:47:00;5.80;;;2.13;;
69956;SDS011;57283;54.816;9.482;2023-02-26T08:49:28;4.83;;;2.17;;
69956;SDS011;57283;54.816;9.482;2023-02-26T08:51:56;5.18;;;2.17;;
69956;SDS011;57283;54.816;9.482;2023-02-26T08:54:24;4.13;;;2.10;;
69956;SDS011;57283;54.816;9.482;2023-02-26T08:56:54;6.20;;;2.10;;
69956;SDS011;57283;54.816;9.482;2023-02-26T08:59:23;4.07;;;2.08;;
69956;SDS011;57283;54.816;9.482;2023-02-26T09:01:51;4.67;;;2.10;;
69956;SDS011;57283;54.816;9.482;2023-02-26T09:04:20;4.68;;;2.00;;
69956;SDS011;57283;54.816;9.482;2023-02-26T09:06:48;4.10;;;2.13;;
69956;SDS011;57283;54.816;9.482;2023-02-26T09:09:17;4.82;;;2.25;;
69956;SDS011;57283;54.816;9.482;2023-02-26T09:11:45;3.97;;;2.05;;
69956;SDS011;57283;54.816;9.482;2023-02-26T09:14:15;3.83;;;2.10;;
69956;SDS011;57283;54.816;9.482;2023-02-26T09:16:43;4.55;;;2.80;;
69956;SDS011;57283;54.816;9.482;2023-02-26T09:19:16;3.80;;;2.33;;
69956;SDS011;57283;54.816;9.482;2023-02-26T09:21:44;3.95;;;2.30;;
69956;SDS011;57283;54.816;9.482;2023-02-26T09:24:12;3.55;;;2.10;;
69956;SDS011;57283;54.816;9.482;2023-02-26T09:26:40;4.53;;;2.20;;
69956;SDS011;57283;54.816;9.482;2023-02-26T09:29:07;5.60;;;2.72;;
69956;SDS011;57283;54.816;9.482;2023-02-26T09:31:39;5.88;;;2.65;;
69956;SDS011;57283;54.816;9.482;2023-02-26T09:34:07;5.22;;;2.67;;
69956;SDS011;57283;54.816;9.482;2023-02-26T09:36:36;4.93;;;2.70;;
69956;SDS011;57283;54.816;9.482;2023-02-26T09:39:05;4.13;;;2.40;;
69956;SDS011;57283;54.816;9.482;2023-02-26T09:41:35;5.85;;;2.30;;
69956;SDS011;57283;54.816;9.482;2023-02-26T09:44:07;5.75;;;2.72;;
69956;SDS011;57283;54.816;9.482;2023-02-26T09:46:47;4.47;;;2.63;;
69956;SDS011;57283;54.816;9.482;2023-02-26T09:49:25;5.65;;;2.55;;
69956;SDS011;57283;54.816;9.482;2023-02-26T09:52:02;4.73;;;2.33;;
69956;SDS011;57283;54.816;9.482;2023-02-26T09:54:35;4.68;;;2.67;;
69956;SDS011;57283;54.816;9.482;2023-02-26T09:57:10;4.28;;;2.30;;
69956;SDS011;57283;54.816;9.482;2023-02-26T09:59:47;4.47;;;2.10;;
69956;SDS011;57283;54.816;9.482;2023-02-26T10:02:19;3.92;;;2.30;;
69956;SDS011;57283;54.816;9.482;2023-02-26T10:04:53;4.37;;;2.17;;
69956;SDS011;57283;54.816;9.482;2023-02-26T10:07:30;4.22;;;2.30;;
69956;SDS011;57283;54.816;9.482;2023-02-26T10:10:08;3.85;;;2.45;;
69956;SDS011;57283;54.816;9.482;2023-02-26T10:12:42;4.60;;;2.45;;
69956;SDS011;57283;54.816;9.482;2023-02-26T10:15:13;5.43;;;2.50;;
69956;SDS011;57283;54.816;9.482;2023-02-26T10:17:51;5.20;;;2.23;;
69956;SDS011;57283;54.816;9.482;2023-02-26T10:20:28;4.60;;;2.63;;
69956;SDS011;57283;54.816;9.482;2023-02-26T10:23:01;5.20;;;2.70;;
69956;SDS011;57283;54.816;9.482;2023-02-26T10:25:36;4.45;;;2.70;;
69956;SDS011;57283;54.816;9.482;2023-02-26T10:28:10;4.38;;;2.65;;
69956;SDS011;57283;54.816;9.482;2023-02-26T10:30:54;5.50;;;2.97;;
69956;SDS011;57283;54.816;9.482;2023-02-26T10:33:32;4.40;;;2.35;;
69956;SDS011;57283;54.816;9.482;2023-02-26T10:36:08;3.90;;;2.75;;
69956;SDS011;57283;54.816;9.482;2023-02-26T10:38:44;3.60;;;2.22;;
69956;SDS011;57283;54.816;9.482;2023-02-26T10:41:17;4.45;;;2.20;;
69956;SDS011;57283;54.816;9.482;2023-02-26T10:43:51;5.07;;;2.30;;
69956;SDS011;57283;54.816;9.482;2023-02-26T10:46:26;3.70;;;2.40;;
69956;SDS011;57283;54.816;9.482;2023-02-26T10:49:13;3.53;;;2.05;;
69956;SDS011;57283;54.816;9.482;2023-02-26T10:51:56;3.38;;;2.13;;
69956;SDS011;57283;54.816;9.482;2023-02-26T10:54:30;5.03;;;1.70;;
69956;SDS011;57283;54.816;9.482;2023-02-26T10:57:02;5.00;;;1.10;;
69956;SDS011;57283;54.816;9.482;2023-02-26T10:59:30;5.43;;;1.77;;
69956;SDS011;57283;54.816;9.482;2023-02-26T11:01:58;3.25;;;1.45;;
69956;SDS011;57283;54.816;9.482;2023-02-26T11:04:28;3.75;;;1.40;;
69956;SDS011;57283;54.816;9.482;2023-02-26T11:06:56;4.10;;;1.40;;
69956;SDS011;57283;54.816;9.482;2023-02-26T11:09:30;3.97;;;1.20;;
69956;SDS011;57283;54.816;9.482;2023-02-26T11:12:03;4.50;;;1.17;;
69956;SDS011;57283;54.816;9.482;2023-02-26T11:14:32;3.95;;;1.48;;
69956;SDS011;57283;54.816;9.482;2023-02-26T11:17:02;4.00;;;1.20;;
69956;SDS011;57283;54.816;9.482;2023-02-26T11:19:35;3.35;;;1.20;;
69956;SDS011;57283;54.816;9.482;2023-02-26T11:22:06;3.23;;;1.13;;
69956;SDS011;57283;54.816;9.482;2023-02-26T11:24:39;3.17;;;1.00;;
69956;SDS011;57283;54.816;9.482;2023-02-26T11:27:11;4.55;;;1.20;;
69956;SDS011;57283;54.816;9.482;2023-02-26T11:29:42;4.25;;;1.00;;
69956;SDS011;57283;54.816;9.482;2023-02-26T11:32:15;4.63;;;1.10;;
69956;SDS011;57283;54.816;9.482;2023-02-26T11:34:47;5.13;;;1.13;;
69956;SDS011;57283;54.816;9.482;2023-02-26T11:37:17;4.82;;;1.17;;
69956;SDS011;57283;54.816;9.482;2023-02-26T11:39:47;5.10;;;1.23;;
69956;SDS011;57283;54.816;9.482;2023-02-26T11:42:20;4.43;;;1.08;;
69956;SDS011;57283;54.816;9.482;2023-02-26T11:44:48;4.15;;;1.15;;
69956;SDS011;57283;54.816;9.482;2023-02-26T11:47:19;3.03;;;1.00;;
69956;SDS011;57283;54.816;9.482;2023-02-26T11:49:55;3.25;;;1.15;;
69956;SDS011;57283;54.816;9.482;2023-02-26T11:52:39;4.45;;;1.10;;
69956;SDS011;57283;54.816;9.482;2023-02-26T11:55:16;2.75;;;1.08;;
69956;SDS011;57283;54.816;9.482;2023-02-26T11:57:47;3.58;;;1.40;;
69956;SDS011;57283;54.816;9.482;2023-02-26T12:00:20;3.00;;;1.03;;
69956;SDS011;57283;54.816;9.482;2023-02-26T12:02:53;3.28;;;1.00;;
69956;SDS011;57283;54.816;9.482;2023-02-26T12:05:27;4.50;;;1.00;;
69956;SDS011;57283;54.816;9.482;2023-02-26T12:07:55;2.92;;;0.95;;
69956;SDS011;57283;54.816;9.482;2023-02-26T12:10:25;2.97;;;0.88;;
69956;SDS011;57283;54.816;9.482;2023-02-26T12:13:04;3.60;;;0.97;;
69956;SDS011;57283;54.816;9.482;2023-02-26T12:15:40;2.60;;;0.90;;
69956;SDS011;57283;54.816;9.482;2023-02-26T12:21:12;4.80;;;0.90;;
69956;SDS011;57283;54.816;9.482;2023-02-26T12:23:59;4.10;;;0.88;;
69956;SDS011;57283;54.816;9.482;2023-02-26T12:26:46;3.47;;;0.90;;
69956;SDS011;57283;54.816;9.482;2023-02-26T12:29:29;4.15;;;0.80;;
69956;SDS011;57283;54.816;9.482;2023-02-26T12:32:33;3.60;;;0.80;;
69956;SDS011;57283;54.816;9.482;2023-02-26T12:35:19;2.20;;;0.60;;
69956;SDS011;57283;54.816;9.482;2023-02-26T12:38:07;4.63;;;0.90;;
69956;SDS011;57283;54.816;9.482;2023-02-26T12:40:59;2.87;;;0.83;;
69956;SDS011;57283;54.816;9.482;2023-02-26T12:43:37;3.42;;;0.98;;
69956;SDS011;57283;54.816;9.482;2023-02-26T12:46:14;3.67;;;1.20;;
69956;SDS011;57283;54.816;9.482;2023-02-26T12:49:04;4.50;;;1.58;;
69956;SDS011;57283;54.816;9.482;2023-02-26T12:55:00;4.33;;;1.50;;
69956;SDS011;57283;54.816;9.482;2023-02-26T12:57:46;3.40;;;1.48;;
69956;SDS011;57283;54.816;9.482;2023-02-26T13:00:41;2.80;;;1.20;;
69956;SDS011;57283;54.816;9.482;2023-02-26T13:10:07;3.20;;;1.10;;
69956;SDS011;57283;54.816;9.482;2023-02-26T13:12:44;4.00;;;1.15;;
69956;SDS011;57283;54.816;9.482;2023-02-26T13:15:30;3.05;;;1.02;;
69956;SDS011;57283;54.816;9.482;2023-02-26T13:18:09;3.20;;;1.50;;
69956;SDS011;57283;54.816;9.482;2023-02-26T13:20:45;3.72;;;1.70;;
69956;SDS011;57283;54.816;9.482;2023-02-26T13:23:22;3.57;;;1.50;;
69956;SDS011;57283;54.816;9.482;2023-02-26T13:25:55;3.97;;;1.60;;
69956;SDS011;57283;54.816;9.482;2023-02-26T13:28:30;4.22;;;2.00;;
69956;SDS011;57283;54.816;9.482;2023-02-26T13:31:06;4.05;;;1.80;;
69956;SDS011;57283;54.816;9.482;2023-02-26T13:33:38;4.32;;;1.75;;
69956;SDS011;57283;54.816;9.482;2023-02-26T13:36:07;3.57;;;1.67;;
69956;SDS011;57283;54.816;9.482;2023-02-26T13:38:39;3.60;;;2.10;;
69956;SDS011;57283;54.816;9.482;2023-02-26T13:41:18;4.53;;;1.80;;
69956;SDS011;57283;54.816;9.482;2023-02-26T13:43:56;3.75;;;1.50;;
69956;SDS011;57283;54.816;9.482;2023-02-26T13:46:38;3.83;;;1.60;;
69956;SDS011;57283;54.816;9.482;2023-02-26T13:49:16;4.20;;;1.40;;
69956;SDS011;57283;54.816;9.482;2023-02-26T13:51:51;6.88;;;2.90;;
69956;SDS011;57283;54.816;9.482;2023-02-26T13:54:33;3.50;;;1.40;;
69956;SDS011;57283;54.816;9.482;2023-02-26T13:57:21;4.38;;;1.65;;
69956;SDS011;57283;54.816;9.482;2023-02-26T13:59:53;3.22;;;1.80;;
69956;SDS011;57283;54.816;9.482;2023-02-26T14:02:43;3.97;;;1.40;;
69956;SDS011;57283;54.816;9.482;2023-02-26T14:05:33;4.32;;;1.65;;
69956;SDS011;57283;54.816;9.482;2023-02-26T14:08:41;3.45;;;1.90;;
69956;SDS011;57283;54.816;9.482;2023-02-26T14:14:11;4.22;;;1.67;;
69956;SDS011;57283;54.816;9.482;2023-02-26T14:16:48;4.40;;;1.50;;
69956;SDS011;57283;54.816;9.482;2023-02-26T14:19:26;4.38;;;1.60;;
69956;SDS011;57283;54.816;9.482;2023-02-26T14:21:56;4.07;;;1.92;;
69956;SDS011;57283;54.816;9.482;2023-02-26T14:24:31;3.75;;;1.55;;
69956;SDS011;57283;54.816;9.482;2023-02-26T14:27:06;3.53;;;1.67;;
69956;SDS011;57283;54.816;9.482;2023-02-26T14:29:57;4.77;;;1.47;;
69956;SDS011;57283;54.816;9.482;2023-02-26T14:32:28;3.42;;;1.30;;
69956;SDS011;57283;54.816;9.482;2023-02-26T14:34:58;5.28;;;1.63;;
69956;SDS011;57283;54.816;9.482;2023-02-26T14:37:31;5.97;;;1.90;;
69956;SDS011;57283;54.816;9.482;2023-02-26T14:40:03;3.83;;;1.30;;
69956;SDS011;57283;54.816;9.482;2023-02-26T14:42:36;3.90;;;1.30;;
69956;SDS011;57283;54.816;9.482;2023-02-26T14:45:26;4.60;;;1.55;;
69956;SDS011;57283;54.816;9.482;2023-02-26T14:47:56;4.60;;;1.23;;
69956;SDS011;57283;54.816;9.482;2023-02-26T14:50:28;4.00;;;1.10;;
69956;SDS011;57283;54.816;9.482;2023-02-26T14:53:20;4.57;;;1.20;;
69956;SDS011;57283;54.816;9.482;2023-02-26T14:56:04;3.80;;;1.00;;
69956;SDS011;57283;54.816;9.482;2023-02-26T14:58:51;3.40;;;1.00;;
69956;SDS011;57283;54.816;9.482;2023-02-26T15:01:46;2.88;;;0.70;;
69956;SDS011;57283;54.816;9.482;2023-02-26T15:04:26;5.72;;;1.17;;
69956;SDS011;57283;54.816;9.482;2023-02-26T15:07:13;3.85;;;1.10;;
69956;SDS011;57283;54.816;9.482;2023-02-26T15:09:53;6.53;;;0.97;;
69956;SDS011;57283;54.816;9.482;2023-02-26T15:12:34;2.95;;;0.80;;
69956;SDS011;57283;54.816;9.482;2023-02-26T15:15:14;3.55;;;0.88;;
69956;SDS011;57283;54.816;9.482;2023-02-26T15:21:05;3.38;;;0.65;;
69956;SDS011;57283;54.816;9.482;2023-02-26T15:23:41;4.50;;;0.90;;
69956;SDS011;57283;54.816;9.482;2023-02-26T15:26:13;2.85;;;0.80;;
69956;SDS011;57283;54.816;9.482;2023-02-26T15:28:45;4.05;;;0.93;;
69956;SDS011;57283;54.816;9.482;2023-02-26T15:31:14;3.45;;;0.73;;
69956;SDS011;57283;54.816;9.482;2023-02-26T15:33:47;3.67;;;0.90;;
69956;SDS011;57283;54.816;9.482;2023-02-26T15:36:17;4.90;;;1.10;;
69956;SDS011;57283;54.816;9.482;2023-02-26T15:38:48;5.82;;;0.80;;
69956;SDS011;57283;54.816;9.482;2023-02-26T15:41:21;4.72;;;0.93;;
69956;SDS011;57283;54.816;9.482;2023-02-26T15:43:51;3.70;;;0.70;;
69956;SDS011;57283;54.816;9.482;2023-02-26T15:46:24;5.75;;;0.93;;